Nestor — V2FB3 — position and weather

sailwx.info

Track history (hours):
 
Tides and Currents Weather Stations Pressure Air Temp Water Temp Dewpoint Dewpoint Depression Visibility Wind Speed Wind Dir Waves Ship Positions

Nestor

Last reported at 2016-Sep-19 19:33 UTC. Time now 2016-Sep-27 22:27 UTC.
Position N 35°56' W 005°09'.
Warning: this ship's position is 8 days out of date.

Length 88 m; draft 5.5 m.

Type: Cargo ship. MMSI: 305620000.

Date/timePositionNaut miles runAvg speedWind from/ knotsBaromVisibWave heightAir tempDewpointWater temp
2016-Sep-19 19:33N 35°56' W 005°09'8 8.6
2016-Sep-19 18:33N 35°54' W 005°19'0 0.1
2016-Sep-19 16:30N 35°54' W 005°18'0 0.2
2016-Sep-19 14:34N 35°54' W 005°19'7 6.6
2016-Sep-19 13:33N 35°57' W 005°26'11 9.0
2016-Sep-19 12:18N 35°54' W 005°39'157 9.4
2016-Sep-18 19:33N 36°27' W 008°50'35 8.9
2016-Sep-18 15:33N 36°43' W 009°29'9 8.9
2016-Sep-18 14:34N 36°50' W 009°35'39 9.9
2016-Sep-18 10:33N 37°29' W 009°45'10 9.8
2016-Sep-18 09:33N 37°38' W 009°49'65 9.3
2016-Sep-18 02:33N 38°42' W 010°07'9 9.0
2016-Sep-18 01:33N 38°51' W 010°07'9 8.6
2016-Sep-18 00:32N 38°60' W 010°07'19 9.1
2016-Sep-17 22:24N 39°19' W 010°07'  
2016-Sep-15 11:19N 43°42' W 005°03'  
2016-Sep-12 07:17N 44°01' W 004°01'395 9.5
2016-Sep-10 13:32N 50°30' W 005°42'8 8.4
2016-Sep-10 12:33N 50°35' W 005°32'16 8.0
2016-Sep-10 10:34N 50°46' W 005°13'8 7.8
2016-Sep-10 09:33N 50°51' W 005°04'8 7.8
2016-Sep-10 08:34N 50°56' W 004°54'8 8.0
2016-Sep-10 07:33N 51°01' W 004°45'8 8.5
2016-Sep-10 06:34N 51°06' W 004°34'29 9.3
2016-Sep-10 03:27N 51°18' W 003°52'3211.1
2016-Sep-10 00:32N 51°26' W 003°02'1010.3
2016-Sep-09 23:33N 51°30' W 002°47'3 2.9
2016-Sep-09 22:32N 51°30' W 002°42'0 0.0
2016-Sep-09 21:32N 51°30' W 002°42'0 0.0
2016-Sep-09 20:32N 51°30' W 002°42'  
Track history (hours):
 
Tides and Currents Weather Stations Pressure Air Temp Water Temp Dewpoint Dewpoint Depression Visibility Wind Speed Wind Dir Waves Ship Positions

Nestor

Last reported at 2016-Sep-19 19:33 UTC. Time now 2016-Sep-27 22:27 UTC.
Position N 35°56' W 005°09'.
Warning: this ship's position is 8 days out of date.

Length 88 m; draft 5.5 m.

Type: Cargo ship. MMSI: 305620000.

Date/timePositionNaut miles runAvg speedWind from/ knotsBaromVisibWave heightAir tempDewpointWater temp
2016-Sep-19 19:33N 35°56' W 005°09'8 8.6
2016-Sep-19 18:33N 35°54' W 005°19'0 0.1
2016-Sep-19 16:30N 35°54' W 005°18'0 0.2
2016-Sep-19 14:34N 35°54' W 005°19'7 6.6
2016-Sep-19 13:33N 35°57' W 005°26'11 9.0
2016-Sep-19 12:18N 35°54' W 005°39'157 9.4
2016-Sep-18 19:33N 36°27' W 008°50'35 8.9
2016-Sep-18 15:33N 36°43' W 009°29'9 8.9
2016-Sep-18 14:34N 36°50' W 009°35'39 9.9
2016-Sep-18 10:33N 37°29' W 009°45'10 9.8
2016-Sep-18 09:33N 37°38' W 009°49'65 9.3
2016-Sep-18 02:33N 38°42' W 010°07'9 9.0
2016-Sep-18 01:33N 38°51' W 010°07'9 8.6
2016-Sep-18 00:32N 38°60' W 010°07'19 9.1
2016-Sep-17 22:24N 39°19' W 010°07'  
2016-Sep-15 11:19N 43°42' W 005°03'  
2016-Sep-12 07:17N 44°01' W 004°01'395 9.5
2016-Sep-10 13:32N 50°30' W 005°42'8 8.4
2016-Sep-10 12:33N 50°35' W 005°32'16 8.0
2016-Sep-10 10:34N 50°46' W 005°13'8 7.8
2016-Sep-10 09:33N 50°51' W 005°04'8 7.8
2016-Sep-10 08:34N 50°56' W 004°54'8 8.0
2016-Sep-10 07:33N 51°01' W 004°45'8 8.5
2016-Sep-10 06:34N 51°06' W 004°34'29 9.3
2016-Sep-10 03:27N 51°18' W 003°52'3211.1
2016-Sep-10 00:32N 51°26' W 003°02'1010.3
2016-Sep-09 23:33N 51°30' W 002°47'3 2.9
2016-Sep-09 22:32N 51°30' W 002°42'0 0.0
2016-Sep-09 21:32N 51°30' W 002°42'0 0.0
2016-Sep-09 20:32N 51°30' W 002°42'  

Dump ship's entire track history